sensor_id;sensor_type;location;lat;lon;timestamp;P1;durP1;ratioP1;P2;durP2;ratioP2
20593;SDS011;10455;48.732;10.266;2023-02-08T00:03:59;9.90;;;7.80;;
20593;SDS011;10455;48.732;10.266;2023-02-08T00:09:01;10.23;;;8.30;;
20593;SDS011;10455;48.732;10.266;2023-02-08T00:14:04;14.13;;;9.87;;
20593;SDS011;10455;48.732;10.266;2023-02-08T00:19:07;15.43;;;10.77;;
20593;SDS011;10455;48.732;10.266;2023-02-08T00:24:09;18.57;;;12.10;;
20593;SDS011;10455;48.732;10.266;2023-02-08T00:29:13;19.00;;;11.53;;
20593;SDS011;10455;48.732;10.266;2023-02-08T00:34:14;17.90;;;11.93;;
20593;SDS011;10455;48.732;10.266;2023-02-08T00:39:16;14.20;;;10.83;;
20593;SDS011;10455;48.732;10.266;2023-02-08T00:44:21;16.20;;;10.27;;
20593;SDS011;10455;48.732;10.266;2023-02-08T00:49:23;18.67;;;12.03;;
20593;SDS011;10455;48.732;10.266;2023-02-08T00:54:25;13.20;;;8.70;;
20593;SDS011;10455;48.732;10.266;2023-02-08T00:59:28;18.30;;;11.70;;
20593;SDS011;10455;48.732;10.266;2023-02-08T01:04:30;16.77;;;10.63;;
20593;SDS011;10455;48.732;10.266;2023-02-08T01:09:32;28.80;;;20.23;;
20593;SDS011;10455;48.732;10.266;2023-02-08T01:14:37;18.57;;;14.90;;
20593;SDS011;10455;48.732;10.266;2023-02-08T01:19:39;18.73;;;12.83;;
20593;SDS011;10455;48.732;10.266;2023-02-08T01:24:41;16.90;;;12.13;;
20593;SDS011;10455;48.732;10.266;2023-02-08T01:29:44;19.50;;;13.40;;
20593;SDS011;10455;48.732;10.266;2023-02-08T01:34:46;20.40;;;14.33;;
20593;SDS011;10455;48.732;10.266;2023-02-08T01:39:48;21.37;;;13.70;;
20593;SDS011;10455;48.732;10.266;2023-02-08T01:50:31;18.47;;;10.97;;
20593;SDS011;10455;48.732;10.266;2023-02-08T01:55:40;20.20;;;13.53;;
20593;SDS011;10455;48.732;10.266;2023-02-08T02:00:46;15.03;;;11.20;;
20593;SDS011;10455;48.732;10.266;2023-02-08T02:05:51;21.17;;;13.80;;
20593;SDS011;10455;48.732;10.266;2023-02-08T02:10:57;17.67;;;12.30;;
20593;SDS011;10455;48.732;10.266;2023-02-08T02:15:59;20.70;;;14.50;;
20593;SDS011;10455;48.732;10.266;2023-02-08T02:21:16;25.00;;;13.47;;
20593;SDS011;10455;48.732;10.266;2023-02-08T02:37:53;20.27;;;14.27;;
20593;SDS011;10455;48.732;10.266;2023-02-08T02:43:05;28.70;;;19.93;;
20593;SDS011;10455;48.732;10.266;2023-02-08T02:48:35;30.00;;;18.93;;
20593;SDS011;10455;48.732;10.266;2023-02-08T02:53:44;32.33;;;21.17;;
20593;SDS011;10455;48.732;10.266;2023-02-08T02:58:51;30.93;;;22.17;;
20593;SDS011;10455;48.732;10.266;2023-02-08T03:04:10;30.43;;;19.77;;
20593;SDS011;10455;48.732;10.266;2023-02-08T03:09:20;29.37;;;20.73;;
20593;SDS011;10455;48.732;10.266;2023-02-08T03:14:40;27.37;;;20.00;;
20593;SDS011;10455;48.732;10.266;2023-02-08T03:19:52;25.50;;;17.57;;
20593;SDS011;10455;48.732;10.266;2023-02-08T03:25:04;29.30;;;19.47;;
20593;SDS011;10455;48.732;10.266;2023-02-08T03:30:11;25.53;;;17.80;;
20593;SDS011;10455;48.732;10.266;2023-02-08T03:35:18;33.53;;;20.27;;
20593;SDS011;10455;48.732;10.266;2023-02-08T03:40:24;32.40;;;20.37;;
20593;SDS011;10455;48.732;10.266;2023-02-08T03:45:28;28.70;;;20.23;;
20593;SDS011;10455;48.732;10.266;2023-02-08T03:50:35;33.67;;;20.27;;
20593;SDS011;10455;48.732;10.266;2023-02-08T03:55:39;33.43;;;20.00;;
20593;SDS011;10455;48.732;10.266;2023-02-08T04:00:48;29.57;;;19.63;;
20593;SDS011;10455;48.732;10.266;2023-02-08T04:05:56;30.90;;;19.30;;
20593;SDS011;10455;48.732;10.266;2023-02-08T04:10:58;28.57;;;17.90;;
20593;SDS011;10455;48.732;10.266;2023-02-08T04:16:00;31.10;;;17.23;;
20593;SDS011;10455;48.732;10.266;2023-02-08T04:21:04;27.37;;;17.73;;
20593;SDS011;10455;48.732;10.266;2023-02-08T04:26:06;28.60;;;18.63;;
20593;SDS011;10455;48.732;10.266;2023-02-08T04:31:08;29.67;;;18.77;;
20593;SDS011;10455;48.732;10.266;2023-02-08T04:36:12;31.97;;;20.83;;
20593;SDS011;10455;48.732;10.266;2023-02-08T04:41:13;32.03;;;19.70;;
20593;SDS011;10455;48.732;10.266;2023-02-08T04:46:15;35.80;;;20.07;;
20593;SDS011;10455;48.732;10.266;2023-02-08T04:51:19;35.40;;;21.07;;
20593;SDS011;10455;48.732;10.266;2023-02-08T04:56:21;30.83;;;19.80;;
20593;SDS011;10455;48.732;10.266;2023-02-08T05:01:23;29.77;;;18.27;;
20593;SDS011;10455;48.732;10.266;2023-02-08T05:06:26;25.43;;;17.23;;
20593;SDS011;10455;48.732;10.266;2023-02-08T05:11:28;28.63;;;18.37;;
20593;SDS011;10455;48.732;10.266;2023-02-08T05:16:30;32.63;;;20.07;;
20593;SDS011;10455;48.732;10.266;2023-02-08T05:21:33;31.00;;;20.80;;
20593;SDS011;10455;48.732;10.266;2023-02-08T05:26:35;35.73;;;21.60;;
20593;SDS011;10455;48.732;10.266;2023-02-08T05:31:37;38.37;;;21.57;;
20593;SDS011;10455;48.732;10.266;2023-02-08T05:36:40;34.03;;;21.40;;
20593;SDS011;10455;48.732;10.266;2023-02-08T05:41:42;33.43;;;22.53;;
20593;SDS011;10455;48.732;10.266;2023-02-08T05:46:44;33.97;;;21.17;;
20593;SDS011;10455;48.732;10.266;2023-02-08T05:51:47;33.40;;;21.63;;
20593;SDS011;10455;48.732;10.266;2023-02-08T05:56:49;36.13;;;23.37;;
20593;SDS011;10455;48.732;10.266;2023-02-08T06:01:51;40.07;;;24.10;;
20593;SDS011;10455;48.732;10.266;2023-02-08T06:06:54;27.80;;;19.47;;
20593;SDS011;10455;48.732;10.266;2023-02-08T06:11:56;36.23;;;23.33;;
20593;SDS011;10455;48.732;10.266;2023-02-08T06:16:58;35.87;;;23.97;;
20593;SDS011;10455;48.732;10.266;2023-02-08T06:22:01;33.97;;;19.93;;
20593;SDS011;10455;48.732;10.266;2023-02-08T06:27:03;36.67;;;22.90;;
20593;SDS011;10455;48.732;10.266;2023-02-08T06:32:05;31.57;;;19.57;;
20593;SDS011;10455;48.732;10.266;2023-02-08T06:37:08;34.73;;;21.37;;
20593;SDS011;10455;48.732;10.266;2023-02-08T06:42:10;36.13;;;23.53;;
20593;SDS011;10455;48.732;10.266;2023-02-08T06:47:12;39.30;;;22.83;;
20593;SDS011;10455;48.732;10.266;2023-02-08T06:52:15;37.43;;;25.13;;
20593;SDS011;10455;48.732;10.266;2023-02-08T06:57:17;37.07;;;24.43;;
20593;SDS011;10455;48.732;10.266;2023-02-08T07:02:19;37.17;;;23.73;;
20593;SDS011;10455;48.732;10.266;2023-02-08T07:07:23;37.43;;;24.00;;
20593;SDS011;10455;48.732;10.266;2023-02-08T07:12:25;36.13;;;24.53;;
20593;SDS011;10455;48.732;10.266;2023-02-08T07:17:26;38.17;;;26.07;;
20593;SDS011;10455;48.732;10.266;2023-02-08T07:22:30;35.40;;;21.30;;
20593;SDS011;10455;48.732;10.266;2023-02-08T07:27:31;44.33;;;26.60;;
20593;SDS011;10455;48.732;10.266;2023-02-08T07:32:33;40.80;;;27.83;;
20593;SDS011;10455;48.732;10.266;2023-02-08T07:37:37;42.70;;;30.00;;
20593;SDS011;10455;48.732;10.266;2023-02-08T07:42:39;49.57;;;31.23;;
20593;SDS011;10455;48.732;10.266;2023-02-08T07:47:40;34.50;;;22.17;;
20593;SDS011;10455;48.732;10.266;2023-02-08T07:52:44;40.42;;;32.80;;
20593;SDS011;10455;48.732;10.266;2023-02-08T07:57:47;38.83;;;25.53;;
20593;SDS011;10455;48.732;10.266;2023-02-08T08:02:50;37.37;;;25.00;;
20593;SDS011;10455;48.732;10.266;2023-02-08T08:07:53;38.93;;;23.73;;
20593;SDS011;10455;48.732;10.266;2023-02-08T08:12:55;39.17;;;25.20;;
20593;SDS011;10455;48.732;10.266;2023-02-08T08:17:56;42.47;;;25.53;;
20593;SDS011;10455;48.732;10.266;2023-02-08T08:23:00;38.57;;;25.50;;
20593;SDS011;10455;48.732;10.266;2023-02-08T08:28:02;39.47;;;24.43;;
20593;SDS011;10455;48.732;10.266;2023-02-08T08:33:05;38.07;;;23.97;;
20593;SDS011;10455;48.732;10.266;2023-02-08T08:38:08;38.03;;;23.83;;
20593;SDS011;10455;48.732;10.266;2023-02-08T08:43:10;36.03;;;23.80;;
20593;SDS011;10455;48.732;10.266;2023-02-08T08:48:12;36.93;;;23.17;;
20593;SDS011;10455;48.732;10.266;2023-02-08T08:53:15;34.90;;;21.70;;
20593;SDS011;10455;48.732;10.266;2023-02-08T08:58:18;32.30;;;22.80;;
20593;SDS011;10455;48.732;10.266;2023-02-08T09:03:20;35.53;;;23.63;;
20593;SDS011;10455;48.732;10.266;2023-02-08T09:08:23;31.20;;;21.50;;
20593;SDS011;10455;48.732;10.266;2023-02-08T09:13:25;34.97;;;22.20;;
20593;SDS011;10455;48.732;10.266;2023-02-08T09:18:27;32.10;;;22.67;;
20593;SDS011;10455;48.732;10.266;2023-02-08T09:23:30;35.57;;;23.20;;
20593;SDS011;10455;48.732;10.266;2023-02-08T09:28:32;30.13;;;20.10;;
20593;SDS011;10455;48.732;10.266;2023-02-08T09:33:34;36.53;;;29.30;;
20593;SDS011;10455;48.732;10.266;2023-02-08T09:38:38;30.57;;;20.07;;
20593;SDS011;10455;48.732;10.266;2023-02-08T09:43:41;25.27;;;18.43;;
20593;SDS011;10455;48.732;10.266;2023-02-08T09:48:51;26.63;;;20.27;;
20593;SDS011;10455;48.732;10.266;2023-02-08T09:53:58;24.30;;;18.13;;
20593;SDS011;10455;48.732;10.266;2023-02-08T09:59:05;27.70;;;20.23;;
20593;SDS011;10455;48.732;10.266;2023-02-08T10:04:17;26.23;;;18.50;;
20593;SDS011;10455;48.732;10.266;2023-02-08T10:09:27;22.87;;;16.40;;
20593;SDS011;10455;48.732;10.266;2023-02-08T10:14:33;19.53;;;15.77;;
20593;SDS011;10455;48.732;10.266;2023-02-08T10:19:59;21.70;;;15.47;;
20593;SDS011;10455;48.732;10.266;2023-02-08T10:25:14;25.93;;;17.37;;
20593;SDS011;10455;48.732;10.266;2023-02-08T10:30:40;22.27;;;17.43;;
20593;SDS011;10455;48.732;10.266;2023-02-08T10:35:48;24.63;;;18.73;;
20593;SDS011;10455;48.732;10.266;2023-02-08T10:40:54;21.70;;;16.80;;
20593;SDS011;10455;48.732;10.266;2023-02-08T10:46:00;20.83;;;15.97;;
20593;SDS011;10455;48.732;10.266;2023-02-08T10:51:08;24.57;;;15.67;;
20593;SDS011;10455;48.732;10.266;2023-02-08T10:56:20;17.43;;;14.03;;
20593;SDS011;10455;48.732;10.266;2023-02-08T11:01:33;17.50;;;14.13;;
20593;SDS011;10455;48.732;10.266;2023-02-08T11:06:35;16.83;;;13.67;;
20593;SDS011;10455;48.732;10.266;2023-02-08T11:11:39;20.40;;;14.50;;
20593;SDS011;10455;48.732;10.266;2023-02-08T11:16:49;21.77;;;14.80;;
20593;SDS011;10455;48.732;10.266;2023-02-08T11:21:51;19.50;;;14.13;;
20593;SDS011;10455;48.732;10.266;2023-02-08T11:26:55;17.97;;;14.07;;
20593;SDS011;10455;48.732;10.266;2023-02-08T11:31:58;19.13;;;14.17;;
20593;SDS011;10455;48.732;10.266;2023-02-08T11:37:02;19.00;;;14.67;;
20593;SDS011;10455;48.732;10.266;2023-02-08T11:42:06;17.87;;;13.93;;
20593;SDS011;10455;48.732;10.266;2023-02-08T11:47:17;18.13;;;14.43;;
20593;SDS011;10455;48.732;10.266;2023-02-08T11:52:26;17.70;;;13.70;;
20593;SDS011;10455;48.732;10.266;2023-02-08T11:57:31;17.73;;;13.73;;
20593;SDS011;10455;48.732;10.266;2023-02-08T12:02:34;16.23;;;13.67;;
20593;SDS011;10455;48.732;10.266;2023-02-08T12:07:40;16.73;;;13.63;;
20593;SDS011;10455;48.732;10.266;2023-02-08T12:13:04;15.37;;;13.30;;
20593;SDS011;10455;48.732;10.266;2023-02-08T12:18:26;17.77;;;13.53;;
20593;SDS011;10455;48.732;10.266;2023-02-08T12:23:46;17.27;;;13.90;;
20593;SDS011;10455;48.732;10.266;2023-02-08T12:28:56;17.83;;;14.20;;
20593;SDS011;10455;48.732;10.266;2023-02-08T12:34:14;20.27;;;14.80;;
20593;SDS011;10455;48.732;10.266;2023-02-08T12:39:24;21.40;;;15.10;;
20593;SDS011;10455;48.732;10.266;2023-02-08T12:45:00;20.67;;;14.77;;
20593;SDS011;10455;48.732;10.266;2023-02-08T12:50:14;19.83;;;15.27;;
20593;SDS011;10455;48.732;10.266;2023-02-08T12:55:23;20.47;;;15.00;;
20593;SDS011;10455;48.732;10.266;2023-02-08T13:00:30;21.73;;;14.73;;
20593;SDS011;10455;48.732;10.266;2023-02-08T13:05:36;19.63;;;14.40;;
20593;SDS011;10455;48.732;10.266;2023-02-08T13:10:41;18.93;;;14.77;;
20593;SDS011;10455;48.732;10.266;2023-02-08T13:15:51;19.10;;;14.53;;
20593;SDS011;10455;48.732;10.266;2023-02-08T13:20:57;17.43;;;13.97;;
20593;SDS011;10455;48.732;10.266;2023-02-08T13:26:05;20.23;;;14.67;;
20593;SDS011;10455;48.732;10.266;2023-02-08T13:31:12;17.23;;;13.80;;
20593;SDS011;10455;48.732;10.266;2023-02-08T13:36:18;20.53;;;16.33;;
20593;SDS011;10455;48.732;10.266;2023-02-08T13:41:24;19.83;;;16.40;;
20593;SDS011;10455;48.732;10.266;2023-02-08T13:46:34;20.87;;;14.97;;
20593;SDS011;10455;48.732;10.266;2023-02-08T13:57:01;19.03;;;14.67;;
20593;SDS011;10455;48.732;10.266;2023-02-08T14:02:18;19.97;;;15.03;;
20593;SDS011;10455;48.732;10.266;2023-02-08T14:07:32;20.97;;;15.80;;
20593;SDS011;10455;48.732;10.266;2023-02-08T14:12:41;18.93;;;15.50;;
20593;SDS011;10455;48.732;10.266;2023-02-08T14:17:51;22.73;;;16.37;;
20593;SDS011;10455;48.732;10.266;2023-02-08T14:22:55;21.30;;;16.63;;
20593;SDS011;10455;48.732;10.266;2023-02-08T14:28:00;20.00;;;16.43;;
20593;SDS011;10455;48.732;10.266;2023-02-08T14:33:15;26.20;;;17.70;;
20593;SDS011;10455;48.732;10.266;2023-02-08T14:38:32;22.37;;;16.20;;
20593;SDS011;10455;48.732;10.266;2023-02-08T14:43:48;21.03;;;16.47;;
20593;SDS011;10455;48.732;10.266;2023-02-08T14:48:52;21.33;;;16.27;;
20593;SDS011;10455;48.732;10.266;2023-02-08T14:53:56;22.27;;;16.47;;
20593;SDS011;10455;48.732;10.266;2023-02-08T14:59:03;24.07;;;17.10;;
20593;SDS011;10455;48.732;10.266;2023-02-08T15:04:10;20.97;;;16.13;;
20593;SDS011;10455;48.732;10.266;2023-02-08T15:09:14;25.10;;;17.63;;
20593;SDS011;10455;48.732;10.266;2023-02-08T15:14:19;28.23;;;20.87;;
20593;SDS011;10455;48.732;10.266;2023-02-08T15:19:25;26.53;;;18.83;;
20593;SDS011;10455;48.732;10.266;2023-02-08T15:24:29;21.97;;;17.07;;
20593;SDS011;10455;48.732;10.266;2023-02-08T15:29:38;31.90;;;20.00;;
20593;SDS011;10455;48.732;10.266;2023-02-08T15:34:43;26.37;;;17.53;;
20593;SDS011;10455;48.732;10.266;2023-02-08T15:39:49;25.00;;;16.73;;
20593;SDS011;10455;48.732;10.266;2023-02-08T15:44:52;23.27;;;16.27;;
20593;SDS011;10455;48.732;10.266;2023-02-08T15:49:56;20.97;;;14.93;;
20593;SDS011;10455;48.732;10.266;2023-02-08T15:54:59;22.47;;;15.63;;
20593;SDS011;10455;48.732;10.266;2023-02-08T16:00:02;23.53;;;14.97;;
20593;SDS011;10455;48.732;10.266;2023-02-08T16:05:11;22.10;;;15.57;;
20593;SDS011;10455;48.732;10.266;2023-02-08T16:10:21;22.17;;;15.83;;
20593;SDS011;10455;48.732;10.266;2023-02-08T16:15:33;26.37;;;19.57;;
20593;SDS011;10455;48.732;10.266;2023-02-08T16:20:37;24.63;;;15.87;;
20593;SDS011;10455;48.732;10.266;2023-02-08T16:25:41;23.87;;;15.43;;
20593;SDS011;10455;48.732;10.266;2023-02-08T16:30:44;24.30;;;16.10;;
20593;SDS011;10455;48.732;10.266;2023-02-08T16:35:47;26.53;;;17.37;;
20593;SDS011;10455;48.732;10.266;2023-02-08T16:40:50;27.30;;;18.00;;
20593;SDS011;10455;48.732;10.266;2023-02-08T16:51:22;27.67;;;17.83;;
20593;SDS011;10455;48.732;10.266;2023-02-08T16:56:26;24.00;;;16.37;;
20593;SDS011;10455;48.732;10.266;2023-02-08T17:01:28;27.27;;;16.13;;
20593;SDS011;10455;48.732;10.266;2023-02-08T17:06:32;27.10;;;17.30;;
20593;SDS011;10455;48.732;10.266;2023-02-08T17:11:36;22.13;;;15.90;;
20593;SDS011;10455;48.732;10.266;2023-02-08T17:16:38;23.23;;;16.07;;
20593;SDS011;10455;48.732;10.266;2023-02-08T17:21:42;24.53;;;16.67;;
20593;SDS011;10455;48.732;10.266;2023-02-08T17:26:43;23.97;;;16.10;;
20593;SDS011;10455;48.732;10.266;2023-02-08T17:31:45;24.60;;;16.23;;
20593;SDS011;10455;48.732;10.266;2023-02-08T17:36:49;25.43;;;17.07;;
20593;SDS011;10455;48.732;10.266;2023-02-08T17:41:51;27.03;;;17.90;;
20593;SDS011;10455;48.732;10.266;2023-02-08T17:46:53;25.23;;;17.47;;
20593;SDS011;10455;48.732;10.266;2023-02-08T17:51:56;33.23;;;22.37;;
20593;SDS011;10455;48.732;10.266;2023-02-08T17:56:58;34.70;;;23.17;;
20593;SDS011;10455;48.732;10.266;2023-02-08T18:02:00;41.13;;;26.27;;
20593;SDS011;10455;48.732;10.266;2023-02-08T18:07:03;34.03;;;21.97;;
20593;SDS011;10455;48.732;10.266;2023-02-08T18:12:05;32.43;;;19.83;;
20593;SDS011;10455;48.732;10.266;2023-02-08T18:17:07;56.50;;;32.60;;
20593;SDS011;10455;48.732;10.266;2023-02-08T18:22:11;36.47;;;24.53;;
20593;SDS011;10455;48.732;10.266;2023-02-08T18:27:12;37.93;;;21.77;;
20593;SDS011;10455;48.732;10.266;2023-02-08T18:32:14;26.33;;;16.93;;
20593;SDS011;10455;48.732;10.266;2023-02-08T18:37:20;28.13;;;16.17;;
20593;SDS011;10455;48.732;10.266;2023-02-08T18:42:22;25.87;;;16.50;;
20593;SDS011;10455;48.732;10.266;2023-02-08T18:47:24;27.50;;;17.10;;
20593;SDS011;10455;48.732;10.266;2023-02-08T18:52:27;36.10;;;21.70;;
20593;SDS011;10455;48.732;10.266;2023-02-08T18:57:29;31.30;;;19.10;;
20593;SDS011;10455;48.732;10.266;2023-02-08T19:02:31;31.87;;;21.00;;
20593;SDS011;10455;48.732;10.266;2023-02-08T19:07:34;31.80;;;22.50;;
20593;SDS011;10455;48.732;10.266;2023-02-08T19:12:37;32.10;;;17.80;;
20593;SDS011;10455;48.732;10.266;2023-02-08T19:17:40;65.27;;;29.70;;
20593;SDS011;10455;48.732;10.266;2023-02-08T19:22:44;28.03;;;16.87;;
20593;SDS011;10455;48.732;10.266;2023-02-08T19:27:47;32.60;;;19.17;;
20593;SDS011;10455;48.732;10.266;2023-02-08T19:32:49;32.47;;;18.63;;
20593;SDS011;10455;48.732;10.266;2023-02-08T19:37:52;45.40;;;26.67;;
20593;SDS011;10455;48.732;10.266;2023-02-08T19:42:54;58.60;;;31.10;;
20593;SDS011;10455;48.732;10.266;2023-02-08T19:47:56;39.17;;;22.57;;
20593;SDS011;10455;48.732;10.266;2023-02-08T19:52:59;34.47;;;21.67;;
20593;SDS011;10455;48.732;10.266;2023-02-08T19:58:01;34.37;;;21.97;;
20593;SDS011;10455;48.732;10.266;2023-02-08T20:03:03;35.87;;;21.17;;
20593;SDS011;10455;48.732;10.266;2023-02-08T20:08:06;36.50;;;20.67;;
20593;SDS011;10455;48.732;10.266;2023-02-08T20:13:08;34.63;;;19.37;;
20593;SDS011;10455;48.732;10.266;2023-02-08T20:18:11;33.83;;;20.10;;
20593;SDS011;10455;48.732;10.266;2023-02-08T20:23:15;26.83;;;17.13;;
20593;SDS011;10455;48.732;10.266;2023-02-08T20:28:17;24.17;;;13.53;;
20593;SDS011;10455;48.732;10.266;2023-02-08T20:33:19;22.47;;;13.83;;
20593;SDS011;10455;48.732;10.266;2023-02-08T20:38:22;18.33;;;12.33;;
20593;SDS011;10455;48.732;10.266;2023-02-08T20:43:24;17.87;;;12.07;;
20593;SDS011;10455;48.732;10.266;2023-02-08T20:48:26;18.43;;;11.93;;
20593;SDS011;10455;48.732;10.266;2023-02-08T20:53:29;24.30;;;15.43;;
20593;SDS011;10455;48.732;10.266;2023-02-08T20:58:31;31.50;;;20.87;;
20593;SDS011;10455;48.732;10.266;2023-02-08T21:03:33;31.93;;;19.57;;
20593;SDS011;10455;48.732;10.266;2023-02-08T21:08:36;28.77;;;18.43;;
20593;SDS011;10455;48.732;10.266;2023-02-08T21:13:38;29.87;;;17.60;;
20593;SDS011;10455;48.732;10.266;2023-02-08T21:18:40;29.70;;;17.60;;
20593;SDS011;10455;48.732;10.266;2023-02-08T21:23:43;40.83;;;21.13;;
20593;SDS011;10455;48.732;10.266;2023-02-08T21:28:46;31.90;;;19.23;;
20593;SDS011;10455;48.732;10.266;2023-02-08T21:33:49;32.37;;;19.00;;
20593;SDS011;10455;48.732;10.266;2023-02-08T21:38:53;40.43;;;21.97;;
20593;SDS011;10455;48.732;10.266;2023-02-08T21:43:55;35.60;;;19.80;;
20593;SDS011;10455;48.732;10.266;2023-02-08T21:48:58;59.57;;;30.33;;
20593;SDS011;10455;48.732;10.266;2023-02-08T21:54:20;48.27;;;26.57;;
20593;SDS011;10455;48.732;10.266;2023-02-08T21:59:40;32.80;;;19.30;;
20593;SDS011;10455;48.732;10.266;2023-02-08T22:04:42;43.47;;;23.10;;
20593;SDS011;10455;48.732;10.266;2023-02-08T22:10:06;39.93;;;20.03;;
20593;SDS011;10455;48.732;10.266;2023-02-08T22:15:09;34.93;;;17.83;;
20593;SDS011;10455;48.732;10.266;2023-02-08T22:20:12;25.07;;;13.93;;
20593;SDS011;10455;48.732;10.266;2023-02-08T22:25:16;33.87;;;18.77;;
20593;SDS011;10455;48.732;10.266;2023-02-08T22:30:18;24.07;;;14.30;;
20593;SDS011;10455;48.732;10.266;2023-02-08T22:35:21;28.60;;;15.37;;
20593;SDS011;10455;48.732;10.266;2023-02-08T22:40:24;27.23;;;14.93;;
20593;SDS011;10455;48.732;10.266;2023-02-08T22:45:26;32.30;;;19.13;;
20593;SDS011;10455;48.732;10.266;2023-02-08T22:50:28;28.70;;;17.70;;
20593;SDS011;10455;48.732;10.266;2023-02-08T22:55:31;35.90;;;17.60;;
20593;SDS011;10455;48.732;10.266;2023-02-08T23:00:33;27.73;;;15.50;;
20593;SDS011;10455;48.732;10.266;2023-02-08T23:05:38;29.40;;;15.70;;
20593;SDS011;10455;48.732;10.266;2023-02-08T23:10:42;27.10;;;14.50;;
20593;SDS011;10455;48.732;10.266;2023-02-08T23:15:45;23.40;;;15.00;;
20593;SDS011;10455;48.732;10.266;2023-02-08T23:20:47;25.30;;;14.57;;
20593;SDS011;10455;48.732;10.266;2023-02-08T23:25:50;26.53;;;14.60;;
20593;SDS011;10455;48.732;10.266;2023-02-08T23:30:52;16.90;;;11.33;;
20593;SDS011;10455;48.732;10.266;2023-02-08T23:35:54;24.47;;;14.97;;
20593;SDS011;10455;48.732;10.266;2023-02-08T23:40:57;19.77;;;11.40;;
20593;SDS011;10455;48.732;10.266;2023-02-08T23:46:06;26.77;;;14.27;;
20593;SDS011;10455;48.732;10.266;2023-02-08T23:51:09;24.73;;;14.50;;
20593;SDS011;10455;48.732;10.266;2023-02-08T23:56:14;24.40;;;13.17;;
